sensor_id;sensor_type;location;lat;lon;timestamp;temperature;humidity
33811;DHT22;20119;48.334;16.206;2023-07-13T00:01:02;19.60;99.90
33811;DHT22;20119;48.334;16.206;2023-07-13T00:08:43;19.50;99.90
33811;DHT22;20119;48.334;16.206;2023-07-13T00:16:23;19.60;99.90
33811;DHT22;20119;48.334;16.206;2023-07-13T00:18:50;19.60;99.90
33811;DHT22;20119;48.334;16.206;2023-07-13T00:21:21;19.50;99.90
33811;DHT22;20119;48.334;16.206;2023-07-13T00:23:49;19.50;99.90
33811;DHT22;20119;48.334;16.206;2023-07-13T00:26:16;19.40;99.90
33811;DHT22;20119;48.334;16.206;2023-07-13T00:28:47;19.30;99.90
33811;DHT22;20119;48.334;16.206;2023-07-13T00:31:17;19.30;99.90
33811;DHT22;20119;48.334;16.206;2023-07-13T00:33:46;19.30;99.90
33811;DHT22;20119;48.334;16.206;2023-07-13T00:36:13;19.30;99.90
33811;DHT22;20119;48.334;16.206;2023-07-13T00:38:40;19.40;99.90
33811;DHT22;20119;48.334;16.206;2023-07-13T00:41:08;19.20;99.90
33811;DHT22;20119;48.334;16.206;2023-07-13T00:43:36;19.20;99.90
33811;DHT22;20119;48.334;16.206;2023-07-13T00:46:19;19.20;99.90
33811;DHT22;20119;48.334;16.206;2023-07-13T00:48:49;19.10;99.90
33811;DHT22;20119;48.334;16.206;2023-07-13T00:51:19;19.10;99.90
33811;DHT22;20119;48.334;16.206;2023-07-13T00:53:47;19.00;99.90
33811;DHT22;20119;48.334;16.206;2023-07-13T00:56:14;19.10;99.90
33811;DHT22;20119;48.334;16.206;2023-07-13T00:58:42;19.10;99.90
33811;DHT22;20119;48.334;16.206;2023-07-13T01:01:10;19.10;99.90
33811;DHT22;20119;48.334;16.206;2023-07-13T01:03:38;19.00;99.90
33811;DHT22;20119;48.334;16.206;2023-07-13T01:06:27;19.00;99.90
33811;DHT22;20119;48.334;16.206;2023-07-13T01:08:56;18.90;99.90
33811;DHT22;20119;48.334;16.206;2023-07-13T01:14:00;18.90;99.90
33811;DHT22;20119;48.334;16.206;2023-07-13T01:16:31;18.90;99.90
33811;DHT22;20119;48.334;16.206;2023-07-13T01:18:59;19.00;99.90
33811;DHT22;20119;48.334;16.206;2023-07-13T01:21:29;19.10;99.90
33811;DHT22;20119;48.334;16.206;2023-07-13T01:23:58;19.20;99.90
33811;DHT22;20119;48.334;16.206;2023-07-13T01:29:01;19.20;99.90
33811;DHT22;20119;48.334;16.206;2023-07-13T01:31:29;19.20;99.90
33811;DHT22;20119;48.334;16.206;2023-07-13T01:33:56;19.30;99.90
33811;DHT22;20119;48.334;16.206;2023-07-13T01:36:24;19.40;99.90
33811;DHT22;20119;48.334;16.206;2023-07-13T01:38:53;19.40;99.90
33811;DHT22;20119;48.334;16.206;2023-07-13T01:49:08;19.50;99.90
33811;DHT22;20119;48.334;16.206;2023-07-13T01:51:36;19.50;99.90
33811;DHT22;20119;48.334;16.206;2023-07-13T01:54:05;19.60;99.90
33811;DHT22;20119;48.334;16.206;2023-07-13T01:56:32;19.70;99.90
33811;DHT22;20119;48.334;16.206;2023-07-13T01:58:59;19.70;99.90
33811;DHT22;20119;48.334;16.206;2023-07-13T02:01:26;19.70;99.90
33811;DHT22;20119;48.334;16.206;2023-07-13T02:03:53;19.70;99.90
33811;DHT22;20119;48.334;16.206;2023-07-13T02:06:21;19.70;99.90
33811;DHT22;20119;48.334;16.206;2023-07-13T02:08:48;19.70;99.90
33811;DHT22;20119;48.334;16.206;2023-07-13T02:11:18;19.70;99.90
33811;DHT22;20119;48.334;16.206;2023-07-13T02:16:21;19.70;99.90
33811;DHT22;20119;48.334;16.206;2023-07-13T02:18:50;19.70;99.90
33811;DHT22;20119;48.334;16.206;2023-07-13T02:23:57;19.80;99.90
33811;DHT22;20119;48.334;16.206;2023-07-13T02:26:28;19.80;99.90
33811;DHT22;20119;48.334;16.206;2023-07-13T02:34:06;19.80;99.90
33811;DHT22;20119;48.334;16.206;2023-07-13T02:41:56;19.80;99.90
33811;DHT22;20119;48.334;16.206;2023-07-13T02:44:36;19.70;99.90
33811;DHT22;20119;48.334;16.206;2023-07-13T02:47:13;19.80;99.90
33811;DHT22;20119;48.334;16.206;2023-07-13T02:52:17;19.90;99.90
33811;DHT22;20119;48.334;16.206;2023-07-13T02:54:47;19.90;99.90
33811;DHT22;20119;48.334;16.206;2023-07-13T02:57:26;19.90;99.90
33811;DHT22;20119;48.334;16.206;2023-07-13T03:00:00;19.90;99.90
33811;DHT22;20119;48.334;16.206;2023-07-13T03:02:37;20.00;99.90
33811;DHT22;20119;48.334;16.206;2023-07-13T03:05:07;20.00;99.90
33811;DHT22;20119;48.334;16.206;2023-07-13T03:07:38;20.00;99.90
33811;DHT22;20119;48.334;16.206;2023-07-13T03:12:44;19.90;99.90
33811;DHT22;20119;48.334;16.206;2023-07-13T03:15:12;19.80;99.90
33811;DHT22;20119;48.334;16.206;2023-07-13T03:17:41;19.70;99.90
33811;DHT22;20119;48.334;16.206;2023-07-13T03:22:58;19.70;99.90
33811;DHT22;20119;48.334;16.206;2023-07-13T03:25:33;19.60;99.90
33811;DHT22;20119;48.334;16.206;2023-07-13T03:28:20;19.50;99.90
33811;DHT22;20119;48.334;16.206;2023-07-13T03:33:23;19.50;99.90
33811;DHT22;20119;48.334;16.206;2023-07-13T03:35:51;19.40;99.90
33811;DHT22;20119;48.334;16.206;2023-07-13T03:40:54;19.30;99.90
33811;DHT22;20119;48.334;16.206;2023-07-13T03:43:23;19.30;99.90
33811;DHT22;20119;48.334;16.206;2023-07-13T03:45:50;19.30;99.90
33811;DHT22;20119;48.334;16.206;2023-07-13T03:48:18;19.30;99.90
33811;DHT22;20119;48.334;16.206;2023-07-13T03:50:46;19.20;99.90
33811;DHT22;20119;48.334;16.206;2023-07-13T03:53:15;19.20;99.90
33811;DHT22;20119;48.334;16.206;2023-07-13T04:00:57;19.10;99.90
33811;DHT22;20119;48.334;16.206;2023-07-13T04:03:25;19.00;99.90
33811;DHT22;20119;48.334;16.206;2023-07-13T04:11:04;18.80;99.90
33811;DHT22;20119;48.334;16.206;2023-07-13T04:13:31;18.80;99.90
33811;DHT22;20119;48.334;16.206;2023-07-13T04:16:00;18.80;99.90
33811;DHT22;20119;48.334;16.206;2023-07-13T04:29:02;18.80;99.90
33811;DHT22;20119;48.334;16.206;2023-07-13T04:31:31;18.70;99.90
33811;DHT22;20119;48.334;16.206;2023-07-13T04:33:58;18.70;99.90
33811;DHT22;20119;48.334;16.206;2023-07-13T04:36:26;18.70;99.90
33811;DHT22;20119;48.334;16.206;2023-07-13T04:38:53;18.70;99.90
33811;DHT22;20119;48.334;16.206;2023-07-13T04:41:21;18.70;99.90
33811;DHT22;20119;48.334;16.206;2023-07-13T04:59:22;18.60;99.90
33811;DHT22;20119;48.334;16.206;2023-07-13T05:12:11;18.90;99.90
33811;DHT22;20119;48.334;16.206;2023-07-13T05:17:07;19.00;99.90
33811;DHT22;20119;48.334;16.206;2023-07-13T05:22:26;19.10;99.90
33811;DHT22;20119;48.334;16.206;2023-07-13T05:24:53;19.10;99.90
33811;DHT22;20119;48.334;16.206;2023-07-13T05:32:33;19.30;99.90
33811;DHT22;20119;48.334;16.206;2023-07-13T05:35:00;19.40;99.90
33811;DHT22;20119;48.334;16.206;2023-07-13T05:37:28;19.50;99.90
33811;DHT22;20119;48.334;16.206;2023-07-13T05:39:55;19.60;99.90
33811;DHT22;20119;48.334;16.206;2023-07-13T05:42:22;19.60;99.90
33811;DHT22;20119;48.334;16.206;2023-07-13T05:44:49;19.60;99.90
33811;DHT22;20119;48.334;16.206;2023-07-13T05:57:39;19.70;99.90
33811;DHT22;20119;48.334;16.206;2023-07-13T06:00:07;19.60;99.90
33811;DHT22;20119;48.334;16.206;2023-07-13T06:02:35;19.60;99.90
33811;DHT22;20119;48.334;16.206;2023-07-13T06:33:33;19.50;99.90
33811;DHT22;20119;48.334;16.206;2023-07-13T06:43:46;19.80;99.90
33811;DHT22;20119;48.334;16.206;2023-07-13T06:46:13;19.80;99.90
33811;DHT22;20119;48.334;16.206;2023-07-13T06:48:45;19.90;99.90
33811;DHT22;20119;48.334;16.206;2023-07-13T06:56:36;20.30;99.90
33811;DHT22;20119;48.334;16.206;2023-07-13T06:59:04;20.40;99.90
33811;DHT22;20119;48.334;16.206;2023-07-13T07:01:31;20.40;99.90
33811;DHT22;20119;48.334;16.206;2023-07-13T07:04:06;20.40;99.90
33811;DHT22;20119;48.334;16.206;2023-07-13T07:06:35;20.40;99.90
33811;DHT22;20119;48.334;16.206;2023-07-13T07:09:04;20.40;99.90
33811;DHT22;20119;48.334;16.206;2023-07-13T07:11:32;20.50;99.90
33811;DHT22;20119;48.334;16.206;2023-07-13T07:14:00;20.60;99.90
33811;DHT22;20119;48.334;16.206;2023-07-13T07:16:29;20.70;99.90
33811;DHT22;20119;48.334;16.206;2023-07-13T07:18:56;20.80;99.90
33811;DHT22;20119;48.334;16.206;2023-07-13T07:24:00;20.80;99.90
33811;DHT22;20119;48.334;16.206;2023-07-13T07:26:29;20.90;99.90
33811;DHT22;20119;48.334;16.206;2023-07-13T07:28:56;21.00;99.90
33811;DHT22;20119;48.334;16.206;2023-07-13T07:31:24;20.90;99.90
33811;DHT22;20119;48.334;16.206;2023-07-13T07:33:51;21.00;99.90
33811;DHT22;20119;48.334;16.206;2023-07-13T07:36:18;21.10;99.90
33811;DHT22;20119;48.334;16.206;2023-07-13T07:38:46;21.00;99.90
33811;DHT22;20119;48.334;16.206;2023-07-13T07:41:15;20.90;99.90
33811;DHT22;20119;48.334;16.206;2023-07-13T07:43:43;21.00;99.90
33811;DHT22;20119;48.334;16.206;2023-07-13T07:46:10;21.20;99.90
33811;DHT22;20119;48.334;16.206;2023-07-13T07:48:37;21.40;99.90
33811;DHT22;20119;48.334;16.206;2023-07-13T07:51:05;21.50;99.90
33811;DHT22;20119;48.334;16.206;2023-07-13T07:53:32;21.50;99.90
33811;DHT22;20119;48.334;16.206;2023-07-13T07:55:59;21.60;99.90
33811;DHT22;20119;48.334;16.206;2023-07-13T07:58:28;21.60;99.90
33811;DHT22;20119;48.334;16.206;2023-07-13T08:01:02;21.70;99.90
33811;DHT22;20119;48.334;16.206;2023-07-13T08:03:29;21.60;99.90
33811;DHT22;20119;48.334;16.206;2023-07-13T08:05:57;21.50;99.90
33811;DHT22;20119;48.334;16.206;2023-07-13T08:08:26;21.40;99.90
33811;DHT22;20119;48.334;16.206;2023-07-13T08:10:56;21.40;99.90
33811;DHT22;20119;48.334;16.206;2023-07-13T08:13:30;21.50;99.90
33811;DHT22;20119;48.334;16.206;2023-07-13T08:15:58;21.80;99.90
33811;DHT22;20119;48.334;16.206;2023-07-13T08:18:27;22.20;99.90
33811;DHT22;20119;48.334;16.206;2023-07-13T08:20:57;22.50;99.90
33811;DHT22;20119;48.334;16.206;2023-07-13T08:23:28;22.90;99.90
33811;DHT22;20119;48.334;16.206;2023-07-13T08:25:58;23.10;99.90
33811;DHT22;20119;48.334;16.206;2023-07-13T08:28:27;23.20;99.90
33811;DHT22;20119;48.334;16.206;2023-07-13T08:31:00;23.70;99.90
33811;DHT22;20119;48.334;16.206;2023-07-13T08:33:30;24.00;99.90
33811;DHT22;20119;48.334;16.206;2023-07-13T08:35:58;24.40;99.90
33811;DHT22;20119;48.334;16.206;2023-07-13T08:38:27;24.60;99.90
33811;DHT22;20119;48.334;16.206;2023-07-13T08:40:55;24.90;99.90
33811;DHT22;20119;48.334;16.206;2023-07-13T08:43:28;25.20;99.90
33811;DHT22;20119;48.334;16.206;2023-07-13T08:46:02;25.30;99.90
33811;DHT22;20119;48.334;16.206;2023-07-13T08:48:38;25.60;99.90
33811;DHT22;20119;48.334;16.206;2023-07-13T08:51:26;26.00;99.90
33811;DHT22;20119;48.334;16.206;2023-07-13T08:54:02;26.40;99.90
33811;DHT22;20119;48.334;16.206;2023-07-13T08:56:31;26.50;99.90
33811;DHT22;20119;48.334;16.206;2023-07-13T08:59:03;26.70;99.90
33811;DHT22;20119;48.334;16.206;2023-07-13T09:01:50;26.90;99.90
33811;DHT22;20119;48.334;16.206;2023-07-13T09:04:22;27.20;99.90
33811;DHT22;20119;48.334;16.206;2023-07-13T09:07:00;27.70;99.90
33811;DHT22;20119;48.334;16.206;2023-07-13T09:09:43;27.40;99.90
33811;DHT22;20119;48.334;16.206;2023-07-13T09:12:19;27.10;99.90
33811;DHT22;20119;48.334;16.206;2023-07-13T09:14:53;27.20;99.90
33811;DHT22;20119;48.334;16.206;2023-07-13T09:17:28;27.00;99.90
33811;DHT22;20119;48.334;16.206;2023-07-13T09:20:02;26.50;99.90
33811;DHT22;20119;48.334;16.206;2023-07-13T09:22:34;26.80;99.90
33811;DHT22;20119;48.334;16.206;2023-07-13T09:25:27;27.70;99.90
33811;DHT22;20119;48.334;16.206;2023-07-13T09:27:59;28.00;99.90
33811;DHT22;20119;48.334;16.206;2023-07-13T09:30:33;28.20;99.90
33811;DHT22;20119;48.334;16.206;2023-07-13T09:33:03;28.20;99.90
33811;DHT22;20119;48.334;16.206;2023-07-13T09:35:30;27.80;99.90
33811;DHT22;20119;48.334;16.206;2023-07-13T09:38:04;27.80;99.90
33811;DHT22;20119;48.334;16.206;2023-07-13T09:40:53;28.30;99.90
33811;DHT22;20119;48.334;16.206;2023-07-13T09:43:24;28.60;99.90
33811;DHT22;20119;48.334;16.206;2023-07-13T09:45:54;28.30;99.90
33811;DHT22;20119;48.334;16.206;2023-07-13T09:48:24;28.30;99.90
33811;DHT22;20119;48.334;16.206;2023-07-13T09:50:56;28.70;99.90
33811;DHT22;20119;48.334;16.206;2023-07-13T09:53:24;28.80;99.90
33811;DHT22;20119;48.334;16.206;2023-07-13T09:55:59;28.10;99.90
33811;DHT22;20119;48.334;16.206;2023-07-13T09:58:30;28.00;99.90
33811;DHT22;20119;48.334;16.206;2023-07-13T10:01:00;27.70;99.90
33811;DHT22;20119;48.334;16.206;2023-07-13T10:03:31;27.80;99.90
33811;DHT22;20119;48.334;16.206;2023-07-13T10:06:12;28.20;99.90
33811;DHT22;20119;48.334;16.206;2023-07-13T10:08:41;28.40;99.90
33811;DHT22;20119;48.334;16.206;2023-07-13T10:11:11;28.20;99.90
33811;DHT22;20119;48.334;16.206;2023-07-13T10:13:53;28.20;99.90
33811;DHT22;20119;48.334;16.206;2023-07-13T10:16:24;28.40;99.90
33811;DHT22;20119;48.334;16.206;2023-07-13T10:18:57;28.60;99.90
33811;DHT22;20119;48.334;16.206;2023-07-13T10:21:32;28.20;99.90
33811;DHT22;20119;48.334;16.206;2023-07-13T10:24:06;28.50;99.90
33811;DHT22;20119;48.334;16.206;2023-07-13T10:26:43;28.30;99.90
33811;DHT22;20119;48.334;16.206;2023-07-13T10:29:15;28.30;99.90
33811;DHT22;20119;48.334;16.206;2023-07-13T10:31:45;27.70;99.90
33811;DHT22;20119;48.334;16.206;2023-07-13T10:34:14;27.30;99.90
33811;DHT22;20119;48.334;16.206;2023-07-13T10:36:47;27.50;99.90
33811;DHT22;20119;48.334;16.206;2023-07-13T10:39:17;27.90;99.90
33811;DHT22;20119;48.334;16.206;2023-07-13T10:41:49;28.40;99.90
33811;DHT22;20119;48.334;16.206;2023-07-13T10:44:22;28.40;99.90
33811;DHT22;20119;48.334;16.206;2023-07-13T10:46:55;28.40;99.90
33811;DHT22;20119;48.334;16.206;2023-07-13T10:49:32;28.10;99.90
33811;DHT22;20119;48.334;16.206;2023-07-13T10:52:02;28.00;99.90
33811;DHT22;20119;48.334;16.206;2023-07-13T10:54:33;28.10;99.90
33811;DHT22;20119;48.334;16.206;2023-07-13T10:57:18;28.40;99.90
33811;DHT22;20119;48.334;16.206;2023-07-13T10:59:48;28.70;99.90
33811;DHT22;20119;48.334;16.206;2023-07-13T11:02:25;28.60;99.90
33811;DHT22;20119;48.334;16.206;2023-07-13T11:04:56;28.40;99.90
33811;DHT22;20119;48.334;16.206;2023-07-13T11:07:26;28.70;99.90
33811;DHT22;20119;48.334;16.206;2023-07-13T11:09:55;28.80;99.90
33811;DHT22;20119;48.334;16.206;2023-07-13T11:12:29;28.90;99.90
33811;DHT22;20119;48.334;16.206;2023-07-13T11:15:29;28.70;99.90
33811;DHT22;20119;48.334;16.206;2023-07-13T11:18:03;28.80;99.90
33811;DHT22;20119;48.334;16.206;2023-07-13T11:20:37;28.90;99.90
33811;DHT22;20119;48.334;16.206;2023-07-13T11:23:30;29.10;99.90
33811;DHT22;20119;48.334;16.206;2023-07-13T11:29:09;28.30;99.90
33811;DHT22;20119;48.334;16.206;2023-07-13T11:31:37;28.60;99.90
33811;DHT22;20119;48.334;16.206;2023-07-13T11:34:12;29.00;99.90
33811;DHT22;20119;48.334;16.206;2023-07-13T11:36:46;29.30;99.90
33811;DHT22;20119;48.334;16.206;2023-07-13T11:39:19;29.50;99.90
33811;DHT22;20119;48.334;16.206;2023-07-13T11:41:52;29.10;99.90
33811;DHT22;20119;48.334;16.206;2023-07-13T11:44:22;28.90;99.90
33811;DHT22;20119;48.334;16.206;2023-07-13T11:46:52;28.60;99.90
33811;DHT22;20119;48.334;16.206;2023-07-13T11:49:22;29.00;99.90
33811;DHT22;20119;48.334;16.206;2023-07-13T11:51:50;29.10;99.90
33811;DHT22;20119;48.334;16.206;2023-07-13T11:54:28;29.00;99.90
33811;DHT22;20119;48.334;16.206;2023-07-13T11:56:59;28.90;99.90
33811;DHT22;20119;48.334;16.206;2023-07-13T11:59:32;29.00;99.90
33811;DHT22;20119;48.334;16.206;2023-07-13T12:02:02;29.10;99.90
33811;DHT22;20119;48.334;16.206;2023-07-13T12:04:31;29.30;99.90
33811;DHT22;20119;48.334;16.206;2023-07-13T12:07:14;29.60;99.90
33811;DHT22;20119;48.334;16.206;2023-07-13T12:09:43;29.20;99.90
33811;DHT22;20119;48.334;16.206;2023-07-13T12:12:14;28.90;99.90
33811;DHT22;20119;48.334;16.206;2023-07-13T12:14:43;29.10;99.90
33811;DHT22;20119;48.334;16.206;2023-07-13T12:17:20;28.90;99.90
33811;DHT22;20119;48.334;16.206;2023-07-13T12:19:48;28.90;99.90
33811;DHT22;20119;48.334;16.206;2023-07-13T12:22:19;28.80;99.90
33811;DHT22;20119;48.334;16.206;2023-07-13T12:24:49;28.80;99.90
33811;DHT22;20119;48.334;16.206;2023-07-13T12:27:20;28.40;99.90
33811;DHT22;20119;48.334;16.206;2023-07-13T12:29:51;28.70;99.90
33811;DHT22;20119;48.334;16.206;2023-07-13T12:32:21;28.80;99.90
33811;DHT22;20119;48.334;16.206;2023-07-13T12:34:53;28.70;99.90
33811;DHT22;20119;48.334;16.206;2023-07-13T12:37:24;28.60;99.90
33811;DHT22;20119;48.334;16.206;2023-07-13T12:39:52;28.60;99.90
33811;DHT22;20119;48.334;16.206;2023-07-13T12:42:21;28.60;99.90
33811;DHT22;20119;48.334;16.206;2023-07-13T12:44:54;28.90;99.90
33811;DHT22;20119;48.334;16.206;2023-07-13T12:47:21;28.70;99.90
33811;DHT22;20119;48.334;16.206;2023-07-13T12:49:54;28.40;99.90
33811;DHT22;20119;48.334;16.206;2023-07-13T12:52:27;28.90;99.90
33811;DHT22;20119;48.334;16.206;2023-07-13T12:55:03;29.10;99.90
33811;DHT22;20119;48.334;16.206;2023-07-13T12:57:30;29.10;99.90
33811;DHT22;20119;48.334;16.206;2023-07-13T12:59:58;29.10;99.90
33811;DHT22;20119;48.334;16.206;2023-07-13T13:02:30;29.20;99.90
33811;DHT22;20119;48.334;16.206;2023-07-13T13:04:59;29.20;99.90
33811;DHT22;20119;48.334;16.206;2023-07-13T13:07:32;28.90;99.90
33811;DHT22;20119;48.334;16.206;2023-07-13T13:10:11;28.90;99.90
33811;DHT22;20119;48.334;16.206;2023-07-13T13:12:42;28.70;99.90
33811;DHT22;20119;48.334;16.206;2023-07-13T13:15:10;28.70;99.90
33811;DHT22;20119;48.334;16.206;2023-07-13T13:17:43;28.50;99.90
33811;DHT22;20119;48.334;16.206;2023-07-13T13:20:16;28.70;99.90
33811;DHT22;20119;48.334;16.206;2023-07-13T13:22:48;28.70;99.90
33811;DHT22;20119;48.334;16.206;2023-07-13T13:25:18;28.40;99.90
33811;DHT22;20119;48.334;16.206;2023-07-13T13:27:48;28.40;99.90
33811;DHT22;20119;48.334;16.206;2023-07-13T13:30:18;28.60;99.90
33811;DHT22;20119;48.334;16.206;2023-07-13T13:32:48;28.80;99.90
33811;DHT22;20119;48.334;16.206;2023-07-13T13:35:18;28.90;99.90
33811;DHT22;20119;48.334;16.206;2023-07-13T13:37:53;28.70;99.90
33811;DHT22;20119;48.334;16.206;2023-07-13T13:40:26;28.70;99.90
33811;DHT22;20119;48.334;16.206;2023-07-13T13:43:00;28.80;99.90
33811;DHT22;20119;48.334;16.206;2023-07-13T13:45:34;28.70;99.90
33811;DHT22;20119;48.334;16.206;2023-07-13T13:48:08;28.90;99.90
33811;DHT22;20119;48.334;16.206;2023-07-13T13:51:00;28.80;99.90
33811;DHT22;20119;48.334;16.206;2023-07-13T13:53:41;28.80;99.90
33811;DHT22;20119;48.334;16.206;2023-07-13T13:56:11;28.80;99.90
33811;DHT22;20119;48.334;16.206;2023-07-13T13:58:38;28.70;99.90
33811;DHT22;20119;48.334;16.206;2023-07-13T14:01:12;28.90;99.90
33811;DHT22;20119;48.334;16.206;2023-07-13T14:03:43;28.60;99.90
33811;DHT22;20119;48.334;16.206;2023-07-13T14:06:19;28.60;99.90
33811;DHT22;20119;48.334;16.206;2023-07-13T14:08:55;28.70;99.90
33811;DHT22;20119;48.334;16.206;2023-07-13T14:11:29;28.60;99.90
33811;DHT22;20119;48.334;16.206;2023-07-13T14:13:59;28.70;99.90
33811;DHT22;20119;48.334;16.206;2023-07-13T14:16:31;28.70;99.90
33811;DHT22;20119;48.334;16.206;2023-07-13T14:19:04;28.50;99.90
33811;DHT22;20119;48.334;16.206;2023-07-13T14:21:35;28.60;99.90
33811;DHT22;20119;48.334;16.206;2023-07-13T14:24:09;28.60;99.90
33811;DHT22;20119;48.334;16.206;2023-07-13T14:26:40;28.70;99.90
33811;DHT22;20119;48.334;16.206;2023-07-13T14:29:18;28.70;99.90
33811;DHT22;20119;48.334;16.206;2023-07-13T14:31:50;28.70;99.90
33811;DHT22;20119;48.334;16.206;2023-07-13T14:34:18;28.70;99.90
33811;DHT22;20119;48.334;16.206;2023-07-13T14:36:51;28.50;99.90
33811;DHT22;20119;48.334;16.206;2023-07-13T14:39:23;28.50;99.90
33811;DHT22;20119;48.334;16.206;2023-07-13T14:41:53;28.30;99.90
33811;DHT22;20119;48.334;16.206;2023-07-13T14:44:28;28.00;99.90
33811;DHT22;20119;48.334;16.206;2023-07-13T14:46:57;28.10;99.90
33811;DHT22;20119;48.334;16.206;2023-07-13T14:49:33;28.10;99.90
33811;DHT22;20119;48.334;16.206;2023-07-13T14:52:05;28.50;99.90
33811;DHT22;20119;48.334;16.206;2023-07-13T14:54:41;28.20;99.90
33811;DHT22;20119;48.334;16.206;2023-07-13T14:57:12;28.10;99.90
33811;DHT22;20119;48.334;16.206;2023-07-13T14:59:46;28.40;99.90
33811;DHT22;20119;48.334;16.206;2023-07-13T15:02:21;28.50;99.90
33811;DHT22;20119;48.334;16.206;2023-07-13T15:05:00;28.40;99.90
33811;DHT22;20119;48.334;16.206;2023-07-13T15:07:51;28.40;99.90
33811;DHT22;20119;48.334;16.206;2023-07-13T15:10:25;27.70;99.90
33811;DHT22;20119;48.334;16.206;2023-07-13T15:13:12;27.70;99.90
33811;DHT22;20119;48.334;16.206;2023-07-13T15:15:45;27.60;99.90
33811;DHT22;20119;48.334;16.206;2023-07-13T15:18:16;27.50;99.90
33811;DHT22;20119;48.334;16.206;2023-07-13T15:20:49;27.20;99.90
33811;DHT22;20119;48.334;16.206;2023-07-13T15:23:19;27.30;99.90
33811;DHT22;20119;48.334;16.206;2023-07-13T15:25:52;27.40;99.90
33811;DHT22;20119;48.334;16.206;2023-07-13T15:28:23;27.20;99.90
33811;DHT22;20119;48.334;16.206;2023-07-13T15:30:58;27.10;99.90
33811;DHT22;20119;48.334;16.206;2023-07-13T15:36:04;26.90;99.90
33811;DHT22;20119;48.334;16.206;2023-07-13T15:38:37;26.90;99.90
33811;DHT22;20119;48.334;16.206;2023-07-13T15:41:29;26.60;99.90
33811;DHT22;20119;48.334;16.206;2023-07-13T15:44:12;26.50;99.90
33811;DHT22;20119;48.334;16.206;2023-07-13T15:46:52;26.30;99.90
33811;DHT22;20119;48.334;16.206;2023-07-13T15:49:20;26.40;99.90
33811;DHT22;20119;48.334;16.206;2023-07-13T15:51:55;26.30;99.90
33811;DHT22;20119;48.334;16.206;2023-07-13T15:57:12;26.00;99.90
33811;DHT22;20119;48.334;16.206;2023-07-13T15:59:45;25.80;99.90
33811;DHT22;20119;48.334;16.206;2023-07-13T16:02:25;25.80;99.90
33811;DHT22;20119;48.334;16.206;2023-07-13T16:04:59;25.60;99.90
33811;DHT22;20119;48.334;16.206;2023-07-13T16:07:29;25.60;99.90
33811;DHT22;20119;48.334;16.206;2023-07-13T16:17:55;25.50;99.90
33811;DHT22;20119;48.334;16.206;2023-07-13T16:23:07;25.00;99.90
33811;DHT22;20119;48.334;16.206;2023-07-13T16:25:42;24.80;99.90
33811;DHT22;20119;48.334;16.206;2023-07-13T16:28:15;24.70;99.90
33811;DHT22;20119;48.334;16.206;2023-07-13T16:41:16;24.20;99.90
33811;DHT22;20119;48.334;16.206;2023-07-13T16:49:20;24.00;99.90
33811;DHT22;20119;48.334;16.206;2023-07-13T16:51:55;23.90;99.90
33811;DHT22;20119;48.334;16.206;2023-07-13T16:54:41;23.90;99.90
33811;DHT22;20119;48.334;16.206;2023-07-13T16:57:19;23.80;99.90
33811;DHT22;20119;48.334;16.206;2023-07-13T17:02:36;23.80;99.90
33811;DHT22;20119;48.334;16.206;2023-07-13T17:07:48;23.80;99.90
33811;DHT22;20119;48.334;16.206;2023-07-13T17:10:24;23.80;99.90
33811;DHT22;20119;48.334;16.206;2023-07-13T17:28:27;23.60;99.90
33811;DHT22;20119;48.334;16.206;2023-07-13T17:30:57;23.60;99.90
33811;DHT22;20119;48.334;16.206;2023-07-13T17:33:28;23.60;99.90
33811;DHT22;20119;48.334;16.206;2023-07-13T17:43:44;23.50;99.90
33811;DHT22;20119;48.334;16.206;2023-07-13T17:48:50;23.40;99.90
33811;DHT22;20119;48.334;16.206;2023-07-13T17:59:07;23.30;99.90
33811;DHT22;20119;48.334;16.206;2023-07-13T18:01:36;23.20;99.90
33811;DHT22;20119;48.334;16.206;2023-07-13T18:04:09;23.20;99.90
33811;DHT22;20119;48.334;16.206;2023-07-13T18:06:40;23.20;99.90
33811;DHT22;20119;48.334;16.206;2023-07-13T18:14:26;23.10;99.90
33811;DHT22;20119;48.334;16.206;2023-07-13T18:19:38;23.00;99.90
33811;DHT22;20119;48.334;16.206;2023-07-13T18:22:13;23.00;99.90
33811;DHT22;20119;48.334;16.206;2023-07-13T18:24:45;22.90;99.90
33811;DHT22;20119;48.334;16.206;2023-07-13T18:30:10;22.90;99.90
33811;DHT22;20119;48.334;16.206;2023-07-13T18:35:46;22.70;99.90
33811;DHT22;20119;48.334;16.206;2023-07-13T18:38:18;22.70;99.90
33811;DHT22;20119;48.334;16.206;2023-07-13T18:53:42;22.40;99.90
33811;DHT22;20119;48.334;16.206;2023-07-13T18:56:20;22.40;99.90
33811;DHT22;20119;48.334;16.206;2023-07-13T19:09:18;22.20;99.90
33811;DHT22;20119;48.334;16.206;2023-07-13T19:11:55;22.20;99.90
33811;DHT22;20119;48.334;16.206;2023-07-13T19:14:28;22.10;99.90
33811;DHT22;20119;48.334;16.206;2023-07-13T19:25:19;22.00;99.90
33811;DHT22;20119;48.334;16.206;2023-07-13T19:28:15;22.00;99.90
33811;DHT22;20119;48.334;16.206;2023-07-13T19:31:11;21.90;99.90
33811;DHT22;20119;48.334;16.206;2023-07-13T19:36:24;21.80;99.90
33811;DHT22;20119;48.334;16.206;2023-07-13T19:38:57;21.80;99.90
33811;DHT22;20119;48.334;16.206;2023-07-13T19:41:33;21.80;99.90
33811;DHT22;20119;48.334;16.206;2023-07-13T19:46:39;21.60;99.90
33811;DHT22;20119;48.334;16.206;2023-07-13T19:49:20;21.60;99.90
33811;DHT22;20119;48.334;16.206;2023-07-13T19:51:55;21.50;99.90
33811;DHT22;20119;48.334;16.206;2023-07-13T19:59:41;21.50;99.90
33811;DHT22;20119;48.334;16.206;2023-07-13T20:02:17;21.40;99.90
33811;DHT22;20119;48.334;16.206;2023-07-13T20:09:59;21.20;99.90
33811;DHT22;20119;48.334;16.206;2023-07-13T20:15:07;21.10;99.90
33811;DHT22;20119;48.334;16.206;2023-07-13T20:17:37;21.00;99.90
33811;DHT22;20119;48.334;16.206;2023-07-13T20:20:20;20.90;99.90
33811;DHT22;20119;48.334;16.206;2023-07-13T20:22:49;20.90;99.90
33811;DHT22;20119;48.334;16.206;2023-07-13T20:25:19;20.90;99.90
33811;DHT22;20119;48.334;16.206;2023-07-13T20:28:14;20.80;99.90
33811;DHT22;20119;48.334;16.206;2023-07-13T20:30:47;20.70;99.90
33811;DHT22;20119;48.334;16.206;2023-07-13T20:35:52;20.60;99.90
33811;DHT22;20119;48.334;16.206;2023-07-13T20:43:32;20.60;99.90
33811;DHT22;20119;48.334;16.206;2023-07-13T20:46:02;20.50;99.90
33811;DHT22;20119;48.334;16.206;2023-07-13T20:48:41;20.50;99.90
33811;DHT22;20119;48.334;16.206;2023-07-13T20:51:14;20.40;99.90
33811;DHT22;20119;48.334;16.206;2023-07-13T20:53:44;20.40;99.90